Time;durP1;ratioP1;P1;durP2;ratioP2;P2;SDS_P1;SDS_P2;PMS_P1;PMS_P2;Temp;Humidity;BMP_temperature;BMP_pressure;BME280_temperature;BME280_humidity;BME280_pressure;Samples;Min_cycle;Max_cycle;Signal;HPM_P1;HPM_P2
2022/05/17 00:01:11;;;;;;;;;;;15.30;93.50;;;;;;4590719;19;19911;-28
2022/05/17 00:02:42;;;;;;;;;;;15.20;93.30;;;;;;4590942;19;19911;-28
2022/05/17 00:04:13;;;;;;;;;;;15.20;93.30;;;;;;4592488;19;19975;-28
2022/05/17 00:05:44;;;;;;;;;;;15.30;93.50;;;;;;4591218;19;19919;-29
2022/05/17 00:07:15;;;;;;;;;;;15.40;94.00;;;;;;4591509;19;19921;-28
2022/05/17 00:08:46;;;;;;;;;;;15.70;93.60;;;;;;4592736;19;19930;-29
2022/05/17 00:10:17;;;;;;;;;;;16.00;93.20;;;;;;4592803;19;19982;-29
2022/05/17 00:11:49;;;;;;;;;;;16.30;92.80;;;;;;4591958;19;19949;-28
2022/05/17 00:13:19;;;;;;;;;;;16.50;92.40;;;;;;4591672;19;19918;-28
2022/05/17 00:14:50;;;;;;;;;;;16.80;92.10;;;;;;4591535;19;19982;-28
2022/05/17 00:16:21;;;;;;;;;;;16.90;91.80;;;;;;4592115;19;19951;-29
2022/05/17 00:17:52;;;;;;;;;;;17.10;91.50;;;;;;4590738;19;19970;-29
2022/05/17 00:19:23;;;;;;;;;;;17.20;91.20;;;;;;4592179;19;19919;-28
2022/05/17 00:20:54;;;;;;;;;;;17.30;91.00;;;;;;4591312;19;19918;-28
2022/05/17 00:22:25;;;;;;;;;;;17.50;90.90;;;;;;4590015;19;19918;-29
2022/05/17 00:23:56;;;;;;;;;;;17.60;90.60;;;;;;4590346;19;19921;-28
2022/05/17 00:25:27;;;;;;;;;;;17.70;90.40;;;;;;4590539;19;19914;-29
2022/05/17 00:26:58;;;;;;;;;;;17.70;90.40;;;;;;4590858;19;19915;-28
2022/05/17 00:28:29;;;;;;;;;;;17.80;90.10;;;;;;4591158;19;20006;-29
2022/05/17 00:30:00;;;;;;;;;;;17.90;90.00;;;;;;4589844;19;20309;-28
2022/05/17 00:31:31;;;;;;;;;;;18.00;89.70;;;;;;4590929;19;19923;-30
2022/05/17 00:33:02;;;;;;;;;;;18.10;89.60;;;;;;4589451;19;19915;-29
2022/05/17 00:34:33;;;;;;;;;;;18.10;89.30;;;;;;4590606;19;20321;-29
2022/05/17 00:36:04;;;;;;;;;;;18.10;89.70;;;;;;4591151;19;19986;-29
2022/05/17 00:37:35;;;;;;;;;;;18.20;89.10;;;;;;4591146;19;19911;-31
2022/05/17 00:39:06;;;;;;;;;;;18.20;89.00;;;;;;4589489;19;19952;-28
2022/05/17 00:40:37;;;;;;;;;;;18.30;89.00;;;;;;4590713;19;19911;-28
2022/05/17 00:42:09;;;;;;;;;;;18.30;88.90;;;;;;4591343;19;19974;-29
2022/05/17 00:45:29;;;;;;;2.00;1.00;;;18.40;88.70;;;;;;4588565;19;20557;-30
2022/05/17 00:47:17;;;;;;;1.80;0.93;;;18.50;88.70;;;;;;4588629;19;20019;-28
2022/05/17 00:48:48;;;;;;;1.85;1.00;;;18.50;88.60;;;;;;4588523;19;20015;-29
2022/05/17 00:50:27;;;;;;;1.83;0.90;;;18.60;88.60;;;;;;4588954;19;20003;-28
2022/05/17 00:52:01;;;;;;;2.13;0.90;;;18.60;88.50;;;;;;4589365;19;19999;-30
2022/05/17 00:53:33;;;;;;;1.85;1.08;;;18.60;88.50;;;;;;4587497;19;20011;-28
2022/05/17 00:55:30;;;;;;;1.90;1.17;;;18.60;88.40;;;;;;4588482;19;20326;-29
2022/05/17 00:57:11;;;;;;;1.77;1.00;;;18.70;88.50;;;;;;4587536;19;20520;-29
2022/05/17 00:58:47;;;;;;;1.95;0.85;;;18.70;88.30;;;;;;4587269;19;20015;-29
2022/05/17 01:00:19;;;;;;;2.28;1.23;;;18.70;88.30;;;;;;4586913;19;20003;-29
2022/05/17 01:01:50;;;;;;;;;;;18.70;88.20;;;;;;4588217;19;20070;-29
2022/05/17 01:03:22;;;;;;;2.65;1.10;;;18.80;88.20;;;;;;4587413;19;19933;-29
2022/05/17 01:04:52;;;;;;;2.40;1.17;;;18.80;88.10;;;;;;4587706;19;20028;-29
2022/05/17 01:06:26;;;;;;;2.45;1.10;;;18.80;88.10;;;;;;4587126;19;20014;-29
2022/05/17 01:07:57;;;;;;;1.85;0.93;;;18.80;88.10;;;;;;4587271;19;20074;-29
2022/05/17 01:09:28;;;;;;;2.00;1.10;;;18.90;88.10;;;;;;4587596;19;20010;-28
2022/05/17 01:10:59;;;;;;;2.08;1.10;;;18.90;88.00;;;;;;4587766;19;20010;-29
2022/05/17 01:12:32;;;;;;;1.63;0.90;;;18.90;88.00;;;;;;4587125;19;20484;-29
2022/05/17 01:15:52;;;;;;;1.73;0.93;;;18.90;88.00;;;;;;4586968;19;20473;-29
2022/05/17 01:17:25;;;;;;;1.55;0.80;;;19.00;87.90;;;;;;4587494;19;20014;-30
2022/05/17 01:18:56;;;;;;;1.33;1.02;;;18.90;87.90;;;;;;4587458;19;20009;-30
2022/05/17 01:20:27;;;;;;;2.38;1.00;;;18.90;87.90;;;;;;4585909;19;20552;-29
2022/05/17 01:21:58;;;;;;;2.40;1.20;;;19.00;87.80;;;;;;4587032;19;20006;-29
2022/05/17 01:23:30;;;;;;;1.83;1.00;;;19.00;87.80;;;;;;4587787;19;20318;-30
2022/05/17 01:25:01;;;;;;;2.08;0.82;;;19.00;87.70;;;;;;4587411;19;20386;-29
2022/05/17 01:26:35;;;;;;;1.40;1.05;;;19.00;87.70;;;;;;4591487;19;20469;-30
2022/05/17 01:28:26;;;;;;;1.55;1.05;;;19.00;87.70;;;;;;4591477;19;20031;-29
2022/05/17 01:29:57;;;;;;;2.10;1.17;;;19.00;87.70;;;;;;4591663;19;20015;-28
2022/05/17 01:31:28;;;;;;;2.15;1.08;;;19.00;87.60;;;;;;4591690;19;20066;-29
2022/05/17 01:32:59;;;;;;;1.33;0.88;;;19.00;87.60;;;;;;4591045;19;20018;-29
2022/05/17 01:34:30;;;;;;;1.90;1.10;;;19.10;87.60;;;;;;4592736;19;20011;-29
2022/05/17 01:36:02;;;;;;;1.55;0.80;;;19.10;87.60;;;;;;4594548;19;20018;-29
2022/05/17 01:37:33;;;;;;;2.40;0.93;;;19.10;87.50;;;;;;4593410;19;20010;-30
2022/05/17 01:39:04;;;;;;;1.98;1.00;;;19.10;87.50;;;;;;4592367;19;20015;-29
2022/05/17 01:40:36;;;;;;;1.38;0.90;;;19.10;87.50;;;;;;4592829;19;20011;-31
2022/05/17 01:42:08;;;;;;;1.67;0.98;;;19.10;87.50;;;;;;4592525;19;20010;-29
2022/05/17 01:43:40;;;;;;;1.58;0.90;;;19.10;87.50;;;;;;4592925;19;20018;-30
2022/05/17 01:45:11;;;;;;;;;;;19.10;87.40;;;;;;4593441;19;20024;-30
2022/05/17 01:46:43;;;;;;;2.10;1.00;;;19.20;87.40;;;;;;4593472;19;19988;-29
2022/05/17 01:48:14;;;;;;;2.33;0.95;;;19.20;87.40;;;;;;4591361;19;19999;-29
2022/05/17 01:49:45;;;;;;;2.53;1.02;;;19.20;87.40;;;;;;4591868;19;20007;-28
2022/05/17 01:51:16;;;;;;;1.80;1.00;;;19.20;87.30;;;;;;4593820;19;20018;-29
2022/05/17 01:52:47;;;;;;;1.83;0.90;;;19.20;87.30;;;;;;4593478;19;20015;-28
2022/05/17 01:54:18;;;;;;;1.77;1.00;;;19.20;87.30;;;;;;4593306;19;20081;-28
2022/05/17 01:55:49;;;;;;;2.58;1.05;;;19.20;87.30;;;;;;4593692;19;20070;-28
2022/05/17 01:57:20;;;;;;;2.13;1.00;;;19.20;87.20;;;;;;4593853;19;20019;-29
2022/05/17 01:58:51;;;;;;;2.65;1.00;;;19.20;87.20;;;;;;4593514;19;20029;-29
2022/05/17 02:00:23;;;;;;;3.60;0.88;;;19.30;87.20;;;;;;4591421;19;20014;-31
2022/05/17 02:01:54;;;;;;;1.40;0.80;;;19.20;87.10;;;;;;4592043;19;20570;-29
2022/05/17 02:03:25;;;;;;;2.70;1.15;;;19.20;87.10;;;;;;4592099;19;20007;-29
2022/05/17 02:04:56;;;;;;;2.20;1.00;;;19.30;87.20;;;;;;4592957;19;20345;-29
2022/05/17 02:06:27;;;;;;;1.88;1.10;;;19.30;87.10;;;;;;4592867;19;20011;-29
2022/05/17 02:07:58;;;;;;;1.73;1.00;;;19.30;87.10;;;;;;4592132;19;20014;-29
2022/05/17 02:09:29;;;;;;;1.80;1.08;;;19.30;87.10;;;;;;4592543;19;20473;-30
2022/05/17 02:11:00;;;;;;;1.80;1.00;;;19.30;87.20;;;;;;4592321;19;20018;-29
2022/05/17 02:12:31;;;;;;;1.88;0.95;;;19.30;87.10;;;;;;4592432;19;20062;-29
2022/05/17 02:14:02;;;;;;;2.13;1.20;;;19.30;87.10;;;;;;4593319;19;20069;-29
2022/05/17 02:15:33;;;;;;;2.50;1.00;;;19.30;87.10;;;;;;4592235;19;20342;-29
2022/05/17 02:17:04;;;;;;;2.83;1.20;;;19.30;87.00;;;;;;4592197;19;20102;-28
2022/05/17 02:18:35;;;;;;;1.70;1.20;;;19.30;87.00;;;;;;4592910;19;20011;-29
2022/05/17 02:20:08;;;;;;;1.85;0.80;;;19.30;87.00;;;;;;4590475;19;20348;-29
2022/05/17 02:21:39;;;;;;;1.63;0.90;;;19.30;87.00;;;;;;4592313;19;20012;-29
2022/05/17 02:23:10;;;;;;;2.35;1.02;;;19.30;87.00;;;;;;4592530;19;20066;-30
2022/05/17 02:24:41;;;;;;;2.50;1.25;;;19.30;86.90;;;;;;4592847;19;20480;-29
2022/05/17 02:26:12;;;;;;;1.15;0.80;;;19.30;86.90;;;;;;4593130;19;20338;-31
2022/05/17 02:27:43;;;;;;;1.48;0.88;;;19.30;86.90;;;;;;4593264;19;20006;-29
2022/05/17 02:29:15;;;;;;;2.22;1.30;;;19.30;86.90;;;;;;4592465;19;20031;-30
2022/05/17 02:30:46;;;;;;;1.48;0.88;;;19.30;86.80;;;;;;4591416;19;20018;-29
2022/05/17 02:32:17;;;;;;;2.28;1.00;;;19.30;86.80;;;;;;4592898;19;20019;-28
2022/05/17 02:33:48;;;;;;;1.50;0.93;;;19.30;86.80;;;;;;4591350;19;20022;-29
2022/05/17 02:35:19;;;;;;;1.65;0.82;;;19.30;86.80;;;;;;4592422;19;20033;-30
2022/05/17 02:36:50;;;;;;;2.00;0.90;;;19.30;86.80;;;;;;4590397;19;20007;-29
2022/05/17 02:38:21;;;;;;;1.88;0.85;;;19.30;86.80;;;;;;4592626;19;20027;-29
2022/05/17 02:39:52;;;;;;;2.25;0.80;;;19.30;86.80;;;;;;4591394;19;20489;-29
2022/05/17 02:41:23;;;;;;;2.22;1.02;;;19.30;86.80;;;;;;4592504;19;20010;-29
2022/05/17 02:42:54;;;;;;;2.08;0.90;;;19.30;86.70;;;;;;4592848;19;20074;-29
2022/05/17 02:44:26;;;;;;;1.98;0.82;;;19.30;86.70;;;;;;4592974;19;20010;-28
2022/05/17 02:45:57;;;;;;;3.60;0.93;;;19.40;86.70;;;;;;4592397;19;20019;-30
2022/05/17 02:47:28;;;;;;;1.38;0.77;;;19.40;86.70;;;;;;4592449;19;20014;-29
2022/05/17 02:49:01;;;;;;;1.95;1.00;;;19.30;86.60;;;;;;4592824;19;19999;-29
2022/05/17 02:50:33;;;;;;;1.90;0.90;;;19.30;86.60;;;;;;4591977;19;20024;-29
2022/05/17 02:52:04;;;;;;;1.58;0.85;;;19.30;86.60;;;;;;4592211;19;20083;-30
2022/05/17 02:53:35;;;;;;;2.33;1.23;;;19.30;86.50;;;;;;4590951;19;20472;-29
2022/05/17 02:55:07;;;;;;;1.67;1.00;;;19.40;86.60;;;;;;4590841;19;20363;-29
2022/05/17 02:56:38;;;;;;;1.88;1.02;;;19.30;86.50;;;;;;4590653;19;20078;-28
2022/05/17 02:58:09;;;;;;;1.88;0.90;;;19.30;86.50;;;;;;4591457;19;20018;-28
2022/05/17 02:59:40;;;;;;;2.00;1.15;;;19.30;86.50;;;;;;4591490;19;20018;-29
2022/05/17 03:01:11;;;;;;;2.30;1.10;;;19.30;86.50;;;;;;4591549;19;20081;-29
2022/05/17 03:02:42;;;;;;;1.95;1.00;;;19.30;86.50;;;;;;4591577;19;20034;-29
2022/05/17 03:04:13;;;;;;;1.77;1.00;;;19.30;86.50;;;;;;4590973;19;20508;-28
2022/05/17 03:05:44;;;;;;;2.08;1.00;;;19.40;86.60;;;;;;4590698;19;20014;-29
2022/05/17 03:07:15;;;;;;;2.13;1.20;;;19.40;86.50;;;;;;4591568;19;20476;-30
2022/05/17 03:08:46;;;;;;;2.03;1.27;;;19.40;86.50;;;;;;4590797;19;20018;-29
2022/05/17 03:10:17;;;;;;;2.50;1.00;;;19.30;86.40;;;;;;4590865;19;20355;-30
2022/05/17 03:11:48;;;;;;;3.00;1.00;;;19.40;86.50;;;;;;4590536;19;20362;-29
2022/05/17 03:13:19;;;;;;;2.33;1.45;;;19.30;86.40;;;;;;4591073;19;20334;-29
2022/05/17 03:14:51;;;;;;;2.42;1.65;;;19.30;86.40;;;;;;4591893;19;20419;-28
2022/05/17 03:16:30;;;;;;;2.63;1.20;;;19.40;86.40;;;;;;4591737;19;20007;-29
2022/05/17 03:18:01;;;;;;;2.05;1.23;;;19.40;86.40;;;;;;4591615;19;20362;-29
2022/05/17 03:19:32;;;;;;;1.92;1.10;;;19.40;86.40;;;;;;4590997;19;20109;-29
2022/05/17 03:21:03;;;;;;;2.45;1.13;;;19.40;86.40;;;;;;4591824;19;20077;-28
2022/05/17 03:22:34;;;;;;;1.75;1.05;;;19.30;86.30;;;;;;4590356;19;20025;-29
2022/05/17 03:24:05;;;;;;;1.63;0.90;;;19.30;86.30;;;;;;4591644;19;20105;-29
2022/05/17 03:25:36;;;;;;;1.73;1.02;;;19.40;86.40;;;;;;4591553;19;20010;-29
2022/05/17 03:27:08;;;;;;;2.58;1.20;;;19.30;86.20;;;;;;4591482;19;20011;-29
2022/05/17 03:28:39;;;;;;;1.92;0.90;;;19.40;86.30;;;;;;4590340;19;19998;-29
2022/05/17 03:30:11;;;;;;;2.53;1.42;;;19.30;86.20;;;;;;4591173;19;20529;-29
2022/05/17 03:31:42;;;;;;;2.40;1.08;;;19.40;86.20;;;;;;4591249;19;20018;-29
2022/05/17 03:33:13;;;;;;;1.70;0.90;;;19.30;86.10;;;;;;4591289;19;20018;-29
2022/05/17 03:34:44;;;;;;;1.15;0.85;;;19.30;86.10;;;;;;4591537;19;20007;-29
2022/05/17 03:36:15;;;;;;;1.63;0.73;;;19.30;86.10;;;;;;4591154;19;20080;-30
2022/05/17 03:37:46;;;;;;;2.35;0.93;;;19.40;86.10;;;;;;4591453;19;20472;-29
2022/05/17 03:39:17;;;;;;;1.92;1.00;;;19.30;86.10;;;;;;4591446;19;20002;-29
2022/05/17 03:40:50;;;;;;;2.22;1.02;;;19.40;86.10;;;;;;4591916;19;20018;-30
2022/05/17 03:42:21;;;;;;;1.58;0.90;;;19.30;86.10;;;;;;4591022;19;20074;-30
2022/05/17 03:43:52;;;;;;;2.45;1.20;;;19.30;86.10;;;;;;4591090;19;20349;-31
2022/05/17 03:45:23;;;;;;;2.25;1.10;;;19.40;86.10;;;;;;4590591;19;20025;-29
2022/05/17 03:46:54;;;;;;;2.25;0.90;;;19.40;86.10;;;;;;4591386;19;20007;-29
2022/05/17 03:48:26;;;;;;;2.10;1.20;;;19.30;86.00;;;;;;4589432;19;20364;-28
2022/05/17 03:49:57;;;;;;;;;;;19.40;86.00;;;;;;4590943;19;20006;-30
2022/05/17 03:51:28;;;;;;;1.05;0.75;;;19.30;85.90;;;;;;4590354;19;20294;-29
2022/05/17 03:53:02;;;;;;;2.22;0.90;;;19.30;85.90;;;;;;4589172;19;20014;-30
2022/05/17 03:54:33;;;;;;;2.08;1.05;;;19.30;85.90;;;;;;4590518;19;20083;-29
2022/05/17 03:56:04;;;;;;;1.00;0.82;;;19.30;85.80;;;;;;4591078;19;20022;-29
2022/05/17 03:57:35;;;;;;;2.53;0.93;;;19.30;85.80;;;;;;4589904;19;20010;-29
2022/05/17 03:59:06;;;;;;;0.90;0.70;;;19.40;85.90;;;;;;4590285;19;20495;-29
2022/05/17 04:00:37;;;;;;;2.22;1.00;;;19.30;85.80;;;;;;4591021;19;20018;-29
2022/05/17 04:02:08;;;;;;;1.38;0.82;;;19.40;85.80;;;;;;4590874;19;20014;-30
2022/05/17 04:03:40;;;;;;;1.98;0.98;;;19.30;85.70;;;;;;4590989;19;20022;-29
2022/05/17 04:05:11;;;;;;;1.55;0.93;;;19.40;85.80;;;;;;4590774;19;20010;-29
2022/05/17 04:06:42;;;;;;;1.80;0.98;;;19.30;85.70;;;;;;4590653;19;20074;-29
2022/05/17 04:08:13;;;;;;;1.92;1.15;;;19.40;85.70;;;;;;4590780;19;20377;-29
2022/05/17 04:09:44;;;;;;;2.53;1.15;;;19.30;85.60;;;;;;4589521;19;20051;-29
2022/05/17 04:11:15;;;;;;;1.60;1.05;;;19.30;85.60;;;;;;4589453;19;20011;-29
2022/05/17 04:12:46;;;;;;;1.67;1.10;;;19.30;85.60;;;;;;4590140;19;20021;-29
2022/05/17 04:14:17;;;;;;;1.50;0.90;;;19.40;85.60;;;;;;4590379;19;20030;-29
2022/05/17 04:15:49;;;;;;;1.58;0.95;;;19.40;85.50;;;;;;4588945;19;20090;-29
2022/05/17 04:17:19;;;;;;;1.98;1.17;;;19.30;85.40;;;;;;4589551;19;20014;-30
2022/05/17 04:18:50;;;;;;;1.77;0.95;;;19.40;85.40;;;;;;4590088;19;20010;-29
2022/05/17 04:20:22;;;;;;;1.38;0.73;;;19.30;85.40;;;;;;4590344;19;20002;-30
2022/05/17 04:21:53;;;;;;;;;;;19.40;85.30;;;;;;4591058;19;20011;-30
2022/05/17 04:23:24;;;;;;;1.85;1.02;;;19.30;85.70;;;;;;4590235;19;19986;-29
2022/05/17 04:24:58;;;;;;;2.33;0.93;;;19.40;85.20;;;;;;4590432;19;20377;-29
2022/05/17 04:26:29;;;;;;;1.48;0.82;;;19.40;85.20;;;;;;4589186;19;20014;-29
2022/05/17 04:28:00;;;;;;;1.80;0.77;;;19.40;85.10;;;;;;4589030;19;20555;-29
2022/05/17 04:29:31;;;;;;;0.73;0.60;;;19.30;85.00;;;;;;4590031;19;20010;-29
2022/05/17 04:31:02;;;;;;;1.70;0.85;;;19.30;84.90;;;;;;4589130;19;20029;-28
2022/05/17 04:32:33;;;;;;;3.22;0.75;;;19.40;84.90;;;;;;4588888;19;20011;-29
2022/05/17 04:34:04;;;;;;;1.55;0.90;;;19.30;84.80;;;;;;4588633;19;20040;-29
2022/05/17 04:35:35;;;;;;;1.52;0.70;;;19.30;85.40;;;;;;4590654;19;20014;-30
2022/05/17 04:37:06;;;;;;;3.78;0.90;;;19.30;84.80;;;;;;4589582;19;20023;-30
2022/05/17 04:38:37;;;;;;;2.08;0.90;;;19.30;84.70;;;;;;4589627;19;20010;-29
2022/05/17 04:40:09;;;;;;;0.93;0.70;;;19.30;84.60;;;;;;4589563;19;20024;-29
2022/05/17 04:41:40;;;;;;;2.00;0.82;;;19.30;84.60;;;;;;4590653;19;20003;-29
2022/05/17 04:43:11;;;;;;;1.00;0.80;;;19.30;84.50;;;;;;4589225;19;20020;-29
2022/05/17 04:44:42;;;;;;;1.33;0.80;;;19.40;84.50;;;;;;4589743;19;20006;-29
2022/05/17 04:46:13;;;;;;;1.20;0.55;;;19.30;84.40;;;;;;4590061;19;20010;-29
2022/05/17 04:47:44;;;;;;;0.95;0.55;;;19.30;84.30;;;;;;4588999;19;20014;-29
2022/05/17 04:49:15;;;;;;;1.40;0.68;;;19.30;84.30;;;;;;4588425;19;20361;-28
2022/05/17 04:50:46;;;;;;;1.80;0.77;;;19.30;84.20;;;;;;4589219;19;20010;-29
2022/05/17 04:52:18;;;;;;;1.75;0.80;;;19.30;84.20;;;;;;4590655;19;20087;-30
2022/05/17 04:53:49;;;;;;;;;;;19.30;84.10;;;;;;4590957;19;20330;-29
2022/05/17 04:55:20;;;;;;;1.13;0.63;;;19.20;84.00;;;;;;4589737;19;19993;-29
2022/05/17 04:56:51;;;;;;;1.23;0.70;;;19.30;84.00;;;;;;4588512;19;20026;-29
2022/05/17 04:58:23;;;;;;;1.20;0.60;;;19.20;83.90;;;;;;4587484;19;20010;-29
2022/05/17 04:59:57;;;;;;;1.42;0.85;;;19.30;83.90;;;;;;4589515;19;20353;-28
2022/05/17 05:01:28;;;;;;;1.63;0.80;;;19.30;83.80;;;;;;4594482;19;20010;-29
2022/05/17 05:02:59;;;;;;;1.23;0.98;;;19.30;83.70;;;;;;4593278;19;20025;-29
2022/05/17 05:04:30;;;;;;;;;;;19.20;83.70;;;;;;4594827;19;20006;-29
2022/05/17 05:06:01;;;;;;;1.10;0.50;;;19.20;83.50;;;;;;4594492;19;19914;-28
2022/05/17 05:07:32;;;;;;;1.25;0.68;;;19.20;83.40;;;;;;4594367;19;20345;-29
2022/05/17 05:09:03;;;;;;;2.05;0.88;;;19.20;83.30;;;;;;4594076;19;20015;-29
2022/05/17 05:10:34;;;;;;;0.85;0.57;;;19.20;83.20;;;;;;4594718;19;20006;-28
2022/05/17 05:12:06;;;;;;;1.10;0.60;;;19.30;83.10;;;;;;4594144;19;20039;-29
2022/05/17 05:13:37;;;;;;;2.15;1.05;;;19.20;83.00;;;;;;4594549;19;20047;-29
2022/05/17 05:15:09;;;;;;;1.02;0.60;;;19.20;83.00;;;;;;4594956;19;20027;-31
2022/05/17 05:16:41;;;;;;;1.02;0.70;;;19.30;82.90;;;;;;4595014;19;20011;-29
2022/05/17 05:18:12;;;;;;;0.95;0.70;;;19.20;82.70;;;;;;4592735;19;20039;-29
2022/05/17 05:19:43;;;;;;;1.50;0.82;;;19.20;82.70;;;;;;4592259;19;20018;-29
2022/05/17 05:21:14;;;;;;;1.15;0.70;;;19.20;82.50;;;;;;4593796;19;20018;-29
2022/05/17 05:22:46;;;;;;;1.30;0.75;;;19.20;82.30;;;;;;4592931;19;20398;-28
2022/05/17 05:24:16;;;;;;;1.55;0.70;;;19.20;82.40;;;;;;4593427;19;20034;-29
2022/05/17 05:25:47;;;;;;;0.90;0.57;;;19.20;82.20;;;;;;4594285;19;20341;-30
2022/05/17 05:27:19;;;;;;;2.33;0.95;;;19.20;82.20;;;;;;4594067;19;20014;-30
2022/05/17 05:28:50;;;;;;;1.08;0.70;;;19.10;81.90;;;;;;4593554;19;20500;-28
2022/05/17 05:30:21;;;;;;;2.35;0.60;;;19.20;81.90;;;;;;4592636;19;20017;-30
2022/05/17 05:31:52;;;;;;;1.30;0.57;;;19.20;81.80;;;;;;4593785;19;20010;-29
2022/05/17 05:33:23;;;;;;;2.92;0.77;;;19.20;81.60;;;;;;4591904;19;20107;-29
2022/05/17 05:34:54;;;;;;;1.58;0.60;;;19.20;81.40;;;;;;4593453;19;20013;-29
2022/05/17 05:36:26;;;;;;;1.65;0.77;;;19.20;81.80;;;;;;4593887;19;20006;-29
2022/05/17 05:37:57;;;;;;;;;;;19.20;81.10;;;;;;4595074;19;20002;-29
2022/05/17 05:39:28;;;;;;;0.88;0.50;;;19.20;80.90;;;;;;4594083;19;20356;-30
2022/05/17 05:40:59;;;;;;;1.00;0.55;;;19.20;80.80;;;;;;4592463;19;20034;-31
2022/05/17 05:42:30;;;;;;;1.90;0.70;;;19.20;80.50;;;;;;4593242;19;20015;-29
2022/05/17 05:44:01;;;;;;;1.23;0.63;;;19.20;80.40;;;;;;4593331;19;20010;-30
2022/05/17 05:45:32;;;;;;;0.95;0.68;;;19.20;80.20;;;;;;4593887;19;20076;-29
2022/05/17 05:47:04;;;;;;;1.00;0.75;;;19.20;80.60;;;;;;4593700;19;20042;-28
2022/05/17 05:48:36;;;;;;;0.80;0.60;;;19.10;79.80;;;;;;4593634;19;20492;-29
2022/05/17 05:50:07;;;;;;;1.02;0.55;;;19.20;79.70;;;;;;4593810;19;20345;-29
2022/05/17 05:51:40;;;;;;;1.67;0.70;;;19.20;79.50;;;;;;4593207;19;20007;-29
2022/05/17 05:53:12;;;;;;;1.17;0.60;;;19.20;79.30;;;;;;4591163;19;20027;-29
2022/05/17 05:54:43;;;;;;;;;;;19.20;79.20;;;;;;4594438;19;20444;-29
2022/05/17 05:56:15;;;;;;;0.77;0.52;;;19.20;79.00;;;;;;4593591;19;19915;-29
2022/05/17 05:57:46;;;;;;;1.27;0.50;;;19.20;79.00;;;;;;4593093;19;20017;-29
2022/05/17 05:59:17;;;;;;;1.35;0.60;;;19.20;78.80;;;;;;4592127;19;20014;-29
2022/05/17 06:00:48;;;;;;;0.95;0.57;;;19.30;78.60;;;;;;4592393;19;20013;-30
2022/05/17 06:02:19;;;;;;;1.10;0.45;;;19.30;78.40;;;;;;4592994;19;20019;-29
2022/05/17 06:03:50;;;;;;;1.52;0.60;;;19.30;78.20;;;;;;4592082;19;20070;-31
2022/05/17 06:05:22;;;;;;;1.48;0.50;;;19.30;78.10;;;;;;4592729;19;20433;-30
2022/05/17 06:06:53;;;;;;;0.95;0.55;;;19.30;78.00;;;;;;4591827;19;20094;-31
2022/05/17 06:08:24;;;;;;;;;;;19.30;78.00;;;;;;4592369;19;20011;-29
2022/05/17 06:09:55;;;;;;;0.77;0.50;;;19.30;78.10;;;;;;4590430;19;19929;-30
2022/05/17 06:11:28;;;;;;;1.48;0.60;;;19.30;77.40;;;;;;4591669;19;20476;-28
2022/05/17 06:12:59;;;;;;;1.13;0.50;;;19.40;77.20;;;;;;4592191;19;20026;-31
2022/05/17 06:14:30;;;;;;;0.68;0.43;;;19.40;76.90;;;;;;4592863;19;20078;-30
2022/05/17 06:16:01;;;;;;;1.42;0.45;;;19.50;76.80;;;;;;4591501;19;20015;-31
2022/05/17 06:17:32;;;;;;;0.65;0.50;;;19.50;76.60;;;;;;4591885;19;20019;-29
2022/05/17 06:19:03;;;;;;;0.82;0.52;;;19.60;76.30;;;;;;4591906;19;20019;-29
2022/05/17 06:20:35;;;;;;;0.98;0.52;;;19.50;76.70;;;;;;4589803;19;20477;-29
2022/05/17 06:22:06;;;;;;;0.75;0.32;;;19.60;76.60;;;;;;4589881;19;20015;-30
2022/05/17 06:23:38;;;;;;;;;;;19.80;76.10;;;;;;4589986;19;20019;-29
2022/05/17 06:25:09;;;;;;;;;;;19.90;76.00;;;;;;4594054;19;19926;-30
2022/05/17 06:26:40;;;;;;;;;;;20.10;75.70;;;;;;4592666;19;19918;-29
2022/05/17 06:28:11;;;;;;;;;;;20.30;75.40;;;;;;4591888;19;19928;-30
2022/05/17 06:29:42;;;;;;;;;;;20.40;74.90;;;;;;4591782;19;19918;-30
2022/05/17 06:31:13;;;;;;;;;;;20.60;74.40;;;;;;4592031;19;19922;-29
2022/05/17 06:32:44;;;;;;;;;;;20.60;74.00;;;;;;4592014;19;19921;-31
2022/05/17 06:34:15;;;;;;;;;;;20.70;73.70;;;;;;4590767;19;19922;-30
2022/05/17 06:35:48;;;;;;;;;;;20.80;73.50;;;;;;4592142;19;19947;-29
2022/05/17 06:37:19;;;;;;;;;;;20.90;73.20;;;;;;4593018;19;19914;-30
2022/05/17 06:38:50;;;;;;;;;;;21.00;72.90;;;;;;4594095;19;19934;-31
2022/05/17 06:40:21;;;;;;;;;;;21.00;72.60;;;;;;4592300;19;19914;-29
2022/05/17 06:41:55;;;;;;;;;;;21.10;72.40;;;;;;4593495;19;19931;-29
2022/05/17 06:43:26;;;;;;;;;;;21.10;72.30;;;;;;4593194;19;19926;-29
2022/05/17 06:44:57;;;;;;;;;;;21.10;72.40;;;;;;4593745;19;19914;-29
2022/05/17 06:46:28;;;;;;;;;;;21.10;72.60;;;;;;4593614;19;19945;-31
2022/05/17 06:48:00;;;;;;;;;;;21.00;72.40;;;;;;4592859;19;19929;-30
2022/05/17 06:49:32;;;;;;;;;;;21.00;72.20;;;;;;4593132;19;19922;-28
2022/05/17 06:51:07;;;;;;;;;;;21.00;72.50;;;;;;4593086;19;19986;-29
2022/05/17 06:52:38;;;;;;;;;;;21.00;72.30;;;;;;4593319;19;19919;-31
2022/05/17 06:54:09;;;;;;;;;;;20.90;72.50;;;;;;4593032;19;19923;-31
2022/05/17 06:55:41;;;;;;;;;;;20.90;72.50;;;;;;4593292;19;19911;-30
2022/05/17 06:57:12;;;;;;;;;;;20.90;72.20;;;;;;4593684;19;19922;-30
2022/05/17 06:58:43;;;;;;;;;;;20.80;72.40;;;;;;4592278;19;19911;-29
2022/05/17 07:00:14;;;;;;;;;;;20.80;72.70;;;;;;4590578;19;19978;-29
2022/05/17 07:01:49;;;;;;;;;;;20.70;72.80;;;;;;4590376;19;19922;-29
2022/05/17 07:03:20;;;;;;;;;;;20.70;73.20;;;;;;4592209;19;19926;-29
2022/05/17 07:04:51;;;;;;;;;;;20.60;73.40;;;;;;4592812;19;19915;-30
2022/05/17 07:06:22;;;;;;;;;;;20.60;73.50;;;;;;4592788;19;19932;-29
2022/05/17 07:07:53;;;;;;;;;;;20.50;73.80;;;;;;4591491;19;20326;-30
2022/05/17 07:09:24;;;;;;;;;;;20.50;73.70;;;;;;4592824;19;20324;-30
2022/05/17 07:14:37;;;;;;;;;;;20.50;73.90;;;;;;4592705;19;19915;-29
2022/05/17 07:16:09;;;;;;;;;;;20.50;74.70;;;;;;4592908;19;19948;-29
2022/05/17 07:17:40;;;;;;;;;;;20.50;74.00;;;;;;4592972;19;19918;-29
2022/05/17 07:19:11;;;;;;;;;;;20.50;73.80;;;;;;4592123;19;19935;-29
2022/05/17 07:20:43;;;;;;;;;;;20.40;74.60;;;;;;4591262;19;20282;-29
2022/05/17 07:22:14;;;;;;;;;;;20.50;74.80;;;;;;4592946;19;19925;-29
2022/05/17 07:23:45;;;;;;;;;;;20.60;74.40;;;;;;4591680;19;20231;-30
2022/05/17 07:25:16;;;;;;;;;;;20.60;73.60;;;;;;4591226;19;20325;-31
2022/05/17 07:26:47;;;;;;;;;;;20.60;73.20;;;;;;4591186;19;19938;-30
2022/05/17 07:28:19;;;;;;;;;;;20.70;73.00;;;;;;4591982;19;20248;-29
2022/05/17 07:29:50;;;;;;;;;;;20.70;72.90;;;;;;4592527;19;19928;-29
2022/05/17 07:31:21;;;;;;;;;;;20.60;72.00;;;;;;4592118;19;19927;-31
2022/05/17 07:32:52;;;;;;;;;;;20.60;72.50;;;;;;4592188;19;20342;-29
2022/05/17 07:34:22;;;;;;;;;;;20.60;72.30;;;;;;4590096;19;19918;-30
2022/05/17 07:35:53;;;;;;;;;;;20.60;72.60;;;;;;4591863;19;19926;-31
2022/05/17 07:37:25;;;;;;;;;;;20.60;72.60;;;;;;4592289;19;20322;-29
2022/05/17 07:38:57;;;;;;;;;;;20.50;72.60;;;;;;4592582;19;19923;-29
2022/05/17 07:40:28;;;;;;;;;;;20.60;72.50;;;;;;4592013;19;19915;-29
2022/05/17 07:41:58;;;;;;;;;;;20.60;72.60;;;;;;4591971;19;20166;-28
2022/05/17 07:43:30;;;;;;;;;;;20.50;72.30;;;;;;4592264;19;20288;-29
2022/05/17 07:45:00;;;;;;;;;;;20.50;72.60;;;;;;4592535;19;19919;-29
2022/05/17 07:46:32;;;;;;;;;;;20.50;72.20;;;;;;4589512;19;19931;-29
2022/05/17 07:48:03;;;;;;;;;;;20.50;72.30;;;;;;4591111;19;19919;-29
2022/05/17 07:49:34;;;;;;;;;;;20.40;72.00;;;;;;4590457;19;20347;-31
2022/05/17 07:51:06;;;;;;;;;;;20.40;72.10;;;;;;4592011;19;19918;-30
2022/05/17 07:52:37;;;;;;;;;;;20.40;71.70;;;;;;4591521;19;19919;-28
2022/05/17 07:54:08;;;;;;;;;;;20.40;71.70;;;;;;4591730;19;19911;-29
2022/05/17 07:55:39;;;;;;;;;;;20.40;71.60;;;;;;4591586;19;19915;-29
2022/05/17 07:57:10;;;;;;;;;;;20.40;71.70;;;;;;4592635;19;19926;-28
2022/05/17 07:58:41;;;;;;;;;;;20.40;71.80;;;;;;4591585;19;19915;-30
2022/05/17 08:00:12;;;;;;;;;;;20.30;71.90;;;;;;4591156;19;19914;-29
2022/05/17 08:01:43;;;;;;;;;;;20.30;72.20;;;;;;4592353;19;19998;-30
2022/05/17 08:03:16;;;;;;;;;;;20.30;72.30;;;;;;4591816;19;19915;-28
2022/05/17 08:04:46;;;;;;;;;;;20.30;72.20;;;;;;4591617;19;19923;-29
2022/05/17 08:06:18;;;;;;;;;;;20.30;72.20;;;;;;4592037;19;20342;-29
2022/05/17 08:07:49;;;;;;;17.17;6.55;;;20.30;72.10;;;;;;4591184;19;19952;-29
2022/05/17 08:09:20;;;;;;;12.60;3.63;;;20.30;72.50;;;;;;4590667;19;20018;-29
2022/05/17 08:10:51;;;;;;;15.93;6.93;;;20.30;72.60;;;;;;4590671;19;20081;-29
2022/05/17 08:12:22;;;;;;;13.02;5.82;;;20.30;73.00;;;;;;4590817;19;20014;-31
2022/05/17 08:13:54;;;;;;;8.40;4.60;;;20.20;73.60;;;;;;4590781;19;20082;-30
2022/05/17 08:15:27;;;;;;;10.45;5.03;;;20.20;73.90;;;;;;4590360;19;20017;-29
2022/05/17 08:16:58;;;;;;;11.27;6.30;;;20.20;74.20;;;;;;4589235;19;20082;-30
2022/05/17 08:18:29;;;;;;;9.30;4.55;;;20.20;74.40;;;;;;4589632;19;20015;-28
2022/05/17 08:20:00;;;;;;;11.07;5.22;;;20.20;74.70;;;;;;4589753;19;20007;-29